메인 페이지
METAR-TAF:

METAR-TAF

공항 :

Audubon County Airport

Audubon, 아이오와, 미국

위도: 41-42-04N, 경도: 094-55-13W, 고도: 392m

현재 날씨관측

예보는 24분 전, 08:55시(UTC)에 발표되었습니다.
4kt
온도 0°C
습도 86%
기압 1022 hPa
시정: 6.4km
고도 200ft 상공 흐림
박무

METAR: KADU 200855Z AUTO 10004KT 4SM BR OVC002 00/M02 A3017 RMK AO2

시각: 04:19 (09:19 UTC)


TAF: 누락

4,000개 이상의 공항 관측 자료 및 예보 (METAR 및 TAF 보고).

지도상에서 검색 가능한 기상관측소가 노란 점과 빨간 점으로 표시되어 있습니다.

기상관측소 명을 보려면 표시 위로 마우스를 이동하세요.

날씨 관측과 예보를 보려면 클릭하세요.

지도 변경 : 확대하려면 엑스 표시가 있는 녹색 버튼, 축소하려면 빼기 표시가 있는 녹색 버튼, 다음 페이지의 지도를 보려면 녹색 화살표를 클릭하세요.


METAR-TAF: